sensor_id;sensor_type;location;lat;lon;timestamp;P1;durP1;ratioP1;P2;durP2;ratioP2
357;SDS011;167;47.558;7.602;2022-07-10T00:00:35;2.47;;;2.27;;
357;SDS011;167;47.558;7.602;2022-07-10T00:03:01;2.60;;;2.40;;
357;SDS011;167;47.558;7.602;2022-07-10T00:05:27;2.50;;;2.40;;
357;SDS011;167;47.558;7.602;2022-07-10T00:07:54;2.37;;;2.27;;
357;SDS011;167;47.558;7.602;2022-07-10T00:10:20;2.27;;;2.17;;
357;SDS011;167;47.558;7.602;2022-07-10T00:12:47;3.00;;;2.80;;
357;SDS011;167;47.558;7.602;2022-07-10T00:15:13;2.80;;;2.60;;
357;SDS011;167;47.558;7.602;2022-07-10T00:17:40;3.33;;;3.00;;
357;SDS011;167;47.558;7.602;2022-07-10T00:20:06;2.73;;;2.60;;
357;SDS011;167;47.558;7.602;2022-07-10T00:22:33;2.37;;;2.27;;
357;SDS011;167;47.558;7.602;2022-07-10T00:25:06;2.53;;;2.43;;
357;SDS011;167;47.558;7.602;2022-07-10T00:27:32;2.13;;;2.10;;
357;SDS011;167;47.558;7.602;2022-07-10T00:29:58;3.57;;;2.70;;
357;SDS011;167;47.558;7.602;2022-07-10T00:32:24;3.07;;;2.87;;
357;SDS011;167;47.558;7.602;2022-07-10T00:34:51;2.47;;;2.33;;
357;SDS011;167;47.558;7.602;2022-07-10T00:37:17;2.90;;;2.80;;
357;SDS011;167;47.558;7.602;2022-07-10T00:39:45;2.73;;;2.57;;
357;SDS011;167;47.558;7.602;2022-07-10T00:42:12;2.20;;;2.10;;
357;SDS011;167;47.558;7.602;2022-07-10T00:44:39;2.80;;;2.33;;
357;SDS011;167;47.558;7.602;2022-07-10T00:47:05;2.53;;;2.33;;
357;SDS011;167;47.558;7.602;2022-07-10T00:49:31;3.13;;;2.40;;
357;SDS011;167;47.558;7.602;2022-07-10T00:51:58;3.10;;;2.90;;
357;SDS011;167;47.558;7.602;2022-07-10T00:54:25;2.90;;;2.70;;
357;SDS011;167;47.558;7.602;2022-07-10T00:56:51;2.50;;;2.40;;
357;SDS011;167;47.558;7.602;2022-07-10T00:59:18;3.23;;;3.00;;
357;SDS011;167;47.558;7.602;2022-07-10T01:01:44;6.30;;;2.83;;
357;SDS011;167;47.558;7.602;2022-07-10T01:04:10;2.77;;;2.63;;
357;SDS011;167;47.558;7.602;2022-07-10T01:06:36;2.83;;;2.73;;
357;SDS011;167;47.558;7.602;2022-07-10T01:09:02;3.00;;;2.73;;
357;SDS011;167;47.558;7.602;2022-07-10T01:11:29;2.80;;;2.70;;
357;SDS011;167;47.558;7.602;2022-07-10T01:13:55;3.43;;;3.20;;
357;SDS011;167;47.558;7.602;2022-07-10T01:16:21;3.77;;;3.57;;
357;SDS011;167;47.558;7.602;2022-07-10T01:18:47;3.57;;;3.40;;
357;SDS011;167;47.558;7.602;2022-07-10T01:21:26;3.77;;;3.43;;
357;SDS011;167;47.558;7.602;2022-07-10T01:23:52;3.80;;;3.50;;
357;SDS011;167;47.558;7.602;2022-07-10T01:26:19;3.50;;;3.30;;
357;SDS011;167;47.558;7.602;2022-07-10T01:28:47;3.53;;;3.27;;
357;SDS011;167;47.558;7.602;2022-07-10T01:31:14;3.83;;;3.57;;
357;SDS011;167;47.558;7.602;2022-07-10T01:33:40;3.97;;;3.77;;
357;SDS011;167;47.558;7.602;2022-07-10T01:36:07;4.10;;;3.80;;
357;SDS011;167;47.558;7.602;2022-07-10T01:38:33;3.97;;;3.77;;
357;SDS011;167;47.558;7.602;2022-07-10T01:40:59;4.10;;;3.30;;
357;SDS011;167;47.558;7.602;2022-07-10T01:43:25;3.73;;;3.53;;
357;SDS011;167;47.558;7.602;2022-07-10T01:45:51;4.00;;;3.60;;
357;SDS011;167;47.558;7.602;2022-07-10T01:48:17;3.87;;;3.57;;
357;SDS011;167;47.558;7.602;2022-07-10T01:50:43;3.50;;;3.30;;
357;SDS011;167;47.558;7.602;2022-07-10T01:53:09;3.60;;;3.40;;
357;SDS011;167;47.558;7.602;2022-07-10T01:55:35;3.97;;;3.77;;
357;SDS011;167;47.558;7.602;2022-07-10T01:58:02;3.43;;;3.30;;
357;SDS011;167;47.558;7.602;2022-07-10T02:00:28;4.17;;;3.93;;
357;SDS011;167;47.558;7.602;2022-07-10T02:02:54;3.73;;;3.53;;
357;SDS011;167;47.558;7.602;2022-07-10T02:05:39;4.07;;;3.87;;
357;SDS011;167;47.558;7.602;2022-07-10T02:08:04;3.77;;;3.57;;
357;SDS011;167;47.558;7.602;2022-07-10T02:10:31;4.53;;;4.33;;
357;SDS011;167;47.558;7.602;2022-07-10T02:12:57;4.50;;;4.20;;
357;SDS011;167;47.558;7.602;2022-07-10T02:15:23;4.03;;;3.83;;
357;SDS011;167;47.558;7.602;2022-07-10T02:17:49;5.17;;;4.87;;
357;SDS011;167;47.558;7.602;2022-07-10T02:20:15;4.80;;;4.40;;
357;SDS011;167;47.558;7.602;2022-07-10T02:22:41;4.67;;;4.37;;
357;SDS011;167;47.558;7.602;2022-07-10T02:25:08;4.80;;;4.40;;
357;SDS011;167;47.558;7.602;2022-07-10T02:27:34;4.60;;;4.20;;
357;SDS011;167;47.558;7.602;2022-07-10T02:30:00;4.47;;;4.07;;
357;SDS011;167;47.558;7.602;2022-07-10T02:32:26;5.40;;;5.00;;
357;SDS011;167;47.558;7.602;2022-07-10T02:34:52;4.63;;;4.37;;
357;SDS011;167;47.558;7.602;2022-07-10T02:37:18;4.60;;;4.40;;
357;SDS011;167;47.558;7.602;2022-07-10T02:39:44;4.80;;;4.40;;
357;SDS011;167;47.558;7.602;2022-07-10T02:42:10;5.27;;;4.97;;
357;SDS011;167;47.558;7.602;2022-07-10T02:44:36;4.30;;;4.00;;
357;SDS011;167;47.558;7.602;2022-07-10T02:47:02;4.57;;;4.17;;
357;SDS011;167;47.558;7.602;2022-07-10T02:49:28;4.60;;;4.30;;
357;SDS011;167;47.558;7.602;2022-07-10T02:51:54;4.87;;;4.60;;
357;SDS011;167;47.558;7.602;2022-07-10T02:54:20;5.43;;;5.13;;
357;SDS011;167;47.558;7.602;2022-07-10T02:56:46;5.07;;;4.77;;
357;SDS011;167;47.558;7.602;2022-07-10T02:59:12;5.37;;;4.97;;
357;SDS011;167;47.558;7.602;2022-07-10T03:01:38;5.70;;;4.53;;
357;SDS011;167;47.558;7.602;2022-07-10T03:04:04;4.77;;;4.37;;
357;SDS011;167;47.558;7.602;2022-07-10T03:06:30;4.70;;;4.40;;
357;SDS011;167;47.558;7.602;2022-07-10T03:08:56;4.60;;;4.40;;
357;SDS011;167;47.558;7.602;2022-07-10T03:11:22;4.37;;;4.17;;
357;SDS011;167;47.558;7.602;2022-07-10T03:13:48;5.63;;;5.23;;
357;SDS011;167;47.558;7.602;2022-07-10T03:16:14;5.80;;;5.40;;
357;SDS011;167;47.558;7.602;2022-07-10T03:18:40;5.80;;;5.50;;
357;SDS011;167;47.558;7.602;2022-07-10T03:21:06;5.60;;;5.03;;
357;SDS011;167;47.558;7.602;2022-07-10T03:23:32;5.57;;;5.20;;
357;SDS011;167;47.558;7.602;2022-07-10T03:25:58;5.40;;;5.10;;
357;SDS011;167;47.558;7.602;2022-07-10T03:28:24;5.47;;;5.07;;
357;SDS011;167;47.558;7.602;2022-07-10T03:30:50;5.77;;;5.27;;
357;SDS011;167;47.558;7.602;2022-07-10T03:33:16;5.40;;;5.00;;
357;SDS011;167;47.558;7.602;2022-07-10T03:35:42;5.93;;;5.53;;
357;SDS011;167;47.558;7.602;2022-07-10T03:38:08;5.27;;;4.93;;
357;SDS011;167;47.558;7.602;2022-07-10T03:40:34;5.77;;;5.37;;
357;SDS011;167;47.558;7.602;2022-07-10T03:43:00;5.50;;;5.03;;
357;SDS011;167;47.558;7.602;2022-07-10T03:45:26;5.13;;;4.87;;
357;SDS011;167;47.558;7.602;2022-07-10T03:47:52;5.53;;;5.20;;
357;SDS011;167;47.558;7.602;2022-07-10T03:50:18;4.93;;;4.63;;
357;SDS011;167;47.558;7.602;2022-07-10T03:52:44;6.27;;;5.70;;
357;SDS011;167;47.558;7.602;2022-07-10T03:55:11;6.80;;;6.30;;
357;SDS011;167;47.558;7.602;2022-07-10T03:57:37;5.93;;;5.47;;
357;SDS011;167;47.558;7.602;2022-07-10T04:00:19;5.90;;;5.50;;
357;SDS011;167;47.558;7.602;2022-07-10T04:02:47;5.10;;;4.70;;
357;SDS011;167;47.558;7.602;2022-07-10T04:05:14;6.23;;;5.80;;
357;SDS011;167;47.558;7.602;2022-07-10T04:07:40;5.43;;;5.03;;
357;SDS011;167;47.558;7.602;2022-07-10T04:10:06;5.93;;;5.40;;
357;SDS011;167;47.558;7.602;2022-07-10T04:12:32;6.40;;;5.80;;
357;SDS011;167;47.558;7.602;2022-07-10T04:14:58;6.43;;;5.93;;
357;SDS011;167;47.558;7.602;2022-07-10T04:17:24;5.30;;;5.00;;
357;SDS011;167;47.558;7.602;2022-07-10T04:19:50;5.40;;;5.10;;
357;SDS011;167;47.558;7.602;2022-07-10T04:22:16;6.67;;;6.30;;
357;SDS011;167;47.558;7.602;2022-07-10T04:24:42;5.57;;;5.17;;
357;SDS011;167;47.558;7.602;2022-07-10T04:27:08;5.60;;;5.30;;
357;SDS011;167;47.558;7.602;2022-07-10T04:29:34;5.60;;;5.30;;
357;SDS011;167;47.558;7.602;2022-07-10T04:32:00;6.07;;;5.77;;
357;SDS011;167;47.558;7.602;2022-07-10T04:34:26;6.00;;;5.50;;
357;SDS011;167;47.558;7.602;2022-07-10T04:36:52;5.37;;;5.07;;
357;SDS011;167;47.558;7.602;2022-07-10T04:39:18;5.27;;;4.97;;
357;SDS011;167;47.558;7.602;2022-07-10T04:41:44;4.97;;;4.60;;
357;SDS011;167;47.558;7.602;2022-07-10T04:44:10;5.00;;;4.70;;
357;SDS011;167;47.558;7.602;2022-07-10T04:46:36;5.70;;;5.40;;
357;SDS011;167;47.558;7.602;2022-07-10T04:49:02;4.87;;;4.67;;
357;SDS011;167;47.558;7.602;2022-07-10T04:51:28;6.03;;;5.63;;
357;SDS011;167;47.558;7.602;2022-07-10T04:53:55;5.37;;;5.07;;
357;SDS011;167;47.558;7.602;2022-07-10T04:56:21;6.90;;;5.70;;
357;SDS011;167;47.558;7.602;2022-07-10T04:58:47;5.77;;;5.47;;
357;SDS011;167;47.558;7.602;2022-07-10T05:01:13;6.17;;;5.77;;
357;SDS011;167;47.558;7.602;2022-07-10T05:03:39;5.67;;;5.27;;
357;SDS011;167;47.558;7.602;2022-07-10T05:06:05;6.50;;;6.00;;
357;SDS011;167;47.558;7.602;2022-07-10T05:08:31;5.43;;;5.13;;
357;SDS011;167;47.558;7.602;2022-07-10T05:10:57;5.00;;;4.50;;
357;SDS011;167;47.558;7.602;2022-07-10T05:13:23;5.40;;;5.10;;
357;SDS011;167;47.558;7.602;2022-07-10T05:15:49;5.43;;;5.13;;
357;SDS011;167;47.558;7.602;2022-07-10T05:18:15;5.70;;;5.30;;
357;SDS011;167;47.558;7.602;2022-07-10T05:20:41;5.23;;;4.93;;
357;SDS011;167;47.558;7.602;2022-07-10T05:23:09;5.27;;;4.97;;
357;SDS011;167;47.558;7.602;2022-07-10T05:25:36;5.30;;;5.00;;
357;SDS011;167;47.558;7.602;2022-07-10T05:28:04;5.50;;;5.00;;
357;SDS011;167;47.558;7.602;2022-07-10T05:30:30;5.60;;;5.20;;
357;SDS011;167;47.558;7.602;2022-07-10T05:32:56;5.67;;;4.97;;
357;SDS011;167;47.558;7.602;2022-07-10T05:35:22;4.00;;;3.80;;
357;SDS011;167;47.558;7.602;2022-07-10T05:37:48;4.50;;;4.20;;
357;SDS011;167;47.558;7.602;2022-07-10T05:40:14;4.97;;;4.67;;
357;SDS011;167;47.558;7.602;2022-07-10T05:42:40;3.20;;;3.00;;
357;SDS011;167;47.558;7.602;2022-07-10T05:45:06;4.60;;;4.30;;
357;SDS011;167;47.558;7.602;2022-07-10T05:47:33;4.90;;;4.60;;
357;SDS011;167;47.558;7.602;2022-07-10T05:49:59;5.40;;;5.00;;
357;SDS011;167;47.558;7.602;2022-07-10T05:52:25;4.40;;;4.10;;
357;SDS011;167;47.558;7.602;2022-07-10T05:54:51;4.93;;;4.60;;
357;SDS011;167;47.558;7.602;2022-07-10T05:57:17;5.00;;;4.60;;
357;SDS011;167;47.558;7.602;2022-07-10T05:59:43;7.13;;;4.67;;
357;SDS011;167;47.558;7.602;2022-07-10T06:02:09;4.93;;;4.63;;
357;SDS011;167;47.558;7.602;2022-07-10T06:04:35;4.50;;;4.20;;
357;SDS011;167;47.558;7.602;2022-07-10T06:07:01;4.90;;;3.60;;
357;SDS011;167;47.558;7.602;2022-07-10T06:09:27;5.13;;;4.83;;
357;SDS011;167;47.558;7.602;2022-07-10T06:11:53;4.40;;;4.20;;
357;SDS011;167;47.558;7.602;2022-07-10T06:14:19;4.90;;;4.50;;
357;SDS011;167;47.558;7.602;2022-07-10T06:16:45;4.63;;;4.43;;
357;SDS011;167;47.558;7.602;2022-07-10T06:19:11;5.17;;;4.80;;
357;SDS011;167;47.558;7.602;2022-07-10T06:21:37;5.20;;;4.73;;
357;SDS011;167;47.558;7.602;2022-07-10T06:24:03;4.33;;;4.03;;
357;SDS011;167;47.558;7.602;2022-07-10T06:26:29;4.43;;;4.13;;
357;SDS011;167;47.558;7.602;2022-07-10T06:28:55;6.03;;;5.63;;
357;SDS011;167;47.558;7.602;2022-07-10T06:31:21;4.63;;;4.37;;
357;SDS011;167;47.558;7.602;2022-07-10T06:33:47;4.50;;;4.20;;
357;SDS011;167;47.558;7.602;2022-07-10T06:36:13;4.83;;;4.53;;
357;SDS011;167;47.558;7.602;2022-07-10T06:38:39;4.87;;;4.47;;
357;SDS011;167;47.558;7.602;2022-07-10T06:41:06;4.73;;;4.43;;
357;SDS011;167;47.558;7.602;2022-07-10T06:43:32;4.57;;;4.30;;
357;SDS011;167;47.558;7.602;2022-07-10T06:45:58;5.30;;;4.80;;
357;SDS011;167;47.558;7.602;2022-07-10T06:48:25;4.57;;;4.27;;
357;SDS011;167;47.558;7.602;2022-07-10T06:50:52;4.63;;;4.10;;
357;SDS011;167;47.558;7.602;2022-07-10T06:53:18;4.43;;;4.13;;
357;SDS011;167;47.558;7.602;2022-07-10T06:55:49;4.40;;;4.20;;
357;SDS011;167;47.558;7.602;2022-07-10T06:58:16;4.37;;;4.17;;
357;SDS011;167;47.558;7.602;2022-07-10T07:00:42;3.97;;;3.77;;
357;SDS011;167;47.558;7.602;2022-07-10T07:03:08;4.63;;;4.23;;
357;SDS011;167;47.558;7.602;2022-07-10T07:05:34;4.73;;;3.70;;
357;SDS011;167;47.558;7.602;2022-07-10T07:08:00;2.90;;;2.77;;
357;SDS011;167;47.558;7.602;2022-07-10T07:10:26;4.67;;;4.47;;
357;SDS011;167;47.558;7.602;2022-07-10T07:12:52;4.70;;;3.60;;
357;SDS011;167;47.558;7.602;2022-07-10T07:15:18;4.53;;;4.20;;
357;SDS011;167;47.558;7.602;2022-07-10T07:17:47;3.77;;;3.57;;
357;SDS011;167;47.558;7.602;2022-07-10T07:20:32;3.30;;;3.10;;
357;SDS011;167;47.558;7.602;2022-07-10T07:23:17;3.40;;;3.23;;
357;SDS011;167;47.558;7.602;2022-07-10T07:25:43;3.00;;;2.90;;
357;SDS011;167;47.558;7.602;2022-07-10T07:28:11;2.73;;;2.63;;
357;SDS011;167;47.558;7.602;2022-07-10T07:30:40;3.17;;;2.97;;
357;SDS011;167;47.558;7.602;2022-07-10T07:33:06;2.40;;;2.30;;
357;SDS011;167;47.558;7.602;2022-07-10T07:35:32;2.90;;;2.70;;
357;SDS011;167;47.558;7.602;2022-07-10T07:37:58;2.40;;;2.20;;
357;SDS011;167;47.558;7.602;2022-07-10T07:40:24;2.67;;;2.57;;
357;SDS011;167;47.558;7.602;2022-07-10T07:42:50;2.87;;;2.60;;
357;SDS011;167;47.558;7.602;2022-07-10T07:45:16;2.83;;;2.73;;
357;SDS011;167;47.558;7.602;2022-07-10T07:47:46;2.90;;;2.67;;
357;SDS011;167;47.558;7.602;2022-07-10T07:50:13;2.30;;;2.07;;
357;SDS011;167;47.558;7.602;2022-07-10T07:52:39;1.87;;;1.77;;
357;SDS011;167;47.558;7.602;2022-07-10T07:55:05;2.23;;;2.10;;
357;SDS011;167;47.558;7.602;2022-07-10T07:57:31;2.13;;;2.03;;
357;SDS011;167;47.558;7.602;2022-07-10T07:59:57;1.80;;;1.70;;
357;SDS011;167;47.558;7.602;2022-07-10T08:02:23;2.00;;;1.90;;
357;SDS011;167;47.558;7.602;2022-07-10T08:04:49;1.90;;;1.80;;
357;SDS011;167;47.558;7.602;2022-07-10T08:07:15;3.00;;;1.90;;
357;SDS011;167;47.558;7.602;2022-07-10T08:09:41;1.70;;;1.60;;
357;SDS011;167;47.558;7.602;2022-07-10T08:12:09;1.90;;;1.80;;
357;SDS011;167;47.558;7.602;2022-07-10T08:14:35;1.80;;;1.70;;
357;SDS011;167;47.558;7.602;2022-07-10T08:17:01;1.87;;;1.77;;
357;SDS011;167;47.558;7.602;2022-07-10T08:19:27;1.67;;;1.60;;
357;SDS011;167;47.558;7.602;2022-07-10T08:21:53;1.60;;;1.50;;
357;SDS011;167;47.558;7.602;2022-07-10T08:24:19;1.67;;;1.60;;
357;SDS011;167;47.558;7.602;2022-07-10T08:26:45;2.03;;;1.60;;
357;SDS011;167;47.558;7.602;2022-07-10T08:29:11;1.60;;;1.60;;
357;SDS011;167;47.558;7.602;2022-07-10T08:31:37;1.67;;;1.40;;
357;SDS011;167;47.558;7.602;2022-07-10T08:34:04;1.30;;;1.30;;
357;SDS011;167;47.558;7.602;2022-07-10T08:36:30;1.30;;;1.30;;
357;SDS011;167;47.558;7.602;2022-07-10T08:38:56;1.20;;;1.20;;
357;SDS011;167;47.558;7.602;2022-07-10T08:41:26;2.17;;;1.63;;
357;SDS011;167;47.558;7.602;2022-07-10T08:43:52;1.00;;;1.00;;
357;SDS011;167;47.558;7.602;2022-07-10T08:46:19;2.57;;;1.10;;
357;SDS011;167;47.558;7.602;2022-07-10T08:48:48;1.60;;;1.10;;
357;SDS011;167;47.558;7.602;2022-07-10T08:51:20;1.40;;;1.30;;
357;SDS011;167;47.558;7.602;2022-07-10T08:53:49;0.90;;;0.90;;
357;SDS011;167;47.558;7.602;2022-07-10T08:56:16;0.97;;;0.97;;
357;SDS011;167;47.558;7.602;2022-07-10T08:58:42;1.10;;;1.10;;
357;SDS011;167;47.558;7.602;2022-07-10T09:01:09;1.10;;;1.10;;
357;SDS011;167;47.558;7.602;2022-07-10T09:03:35;1.40;;;1.13;;
357;SDS011;167;47.558;7.602;2022-07-10T09:06:03;0.93;;;0.93;;
357;SDS011;167;47.558;7.602;2022-07-10T09:08:30;1.10;;;1.00;;
357;SDS011;167;47.558;7.602;2022-07-10T09:11:15;1.20;;;1.20;;
357;SDS011;167;47.558;7.602;2022-07-10T09:13:52;1.20;;;1.10;;
357;SDS011;167;47.558;7.602;2022-07-10T09:16:24;0.80;;;0.80;;
357;SDS011;167;47.558;7.602;2022-07-10T09:18:51;1.23;;;1.17;;
357;SDS011;167;47.558;7.602;2022-07-10T09:21:17;1.00;;;1.00;;
357;SDS011;167;47.558;7.602;2022-07-10T09:23:43;0.90;;;0.90;;
357;SDS011;167;47.558;7.602;2022-07-10T09:26:09;1.10;;;1.10;;
357;SDS011;167;47.558;7.602;2022-07-10T09:28:35;1.40;;;1.30;;
357;SDS011;167;47.558;7.602;2022-07-10T09:31:01;1.90;;;1.40;;
357;SDS011;167;47.558;7.602;2022-07-10T09:33:28;1.00;;;1.00;;
357;SDS011;167;47.558;7.602;2022-07-10T09:36:08;0.93;;;0.85;;
357;SDS011;167;47.558;7.602;2022-07-10T09:41:23;0.95;;;0.95;;
357;SDS011;167;47.558;7.602;2022-07-10T09:43:54;0.82;;;0.82;;
357;SDS011;167;47.558;7.602;2022-07-10T09:46:25;1.20;;;0.97;;
357;SDS011;167;47.558;7.602;2022-07-10T09:51:26;1.30;;;1.20;;
357;SDS011;167;47.558;7.602;2022-07-10T09:53:54;0.90;;;0.90;;
357;SDS011;167;47.558;7.602;2022-07-10T09:56:21;1.57;;;1.17;;
357;SDS011;167;47.558;7.602;2022-07-10T09:58:48;0.80;;;0.80;;
357;SDS011;167;47.558;7.602;2022-07-10T10:01:15;1.10;;;1.10;;
357;SDS011;167;47.558;7.602;2022-07-10T10:03:41;0.97;;;0.97;;
357;SDS011;167;47.558;7.602;2022-07-10T10:06:10;1.10;;;1.10;;
357;SDS011;167;47.558;7.602;2022-07-10T10:08:43;0.60;;;0.60;;
357;SDS011;167;47.558;7.602;2022-07-10T10:11:12;0.90;;;0.90;;
357;SDS011;167;47.558;7.602;2022-07-10T10:13:40;0.80;;;0.80;;
357;SDS011;167;47.558;7.602;2022-07-10T10:16:07;0.73;;;0.73;;
357;SDS011;167;47.558;7.602;2022-07-10T10:18:34;0.70;;;0.70;;
357;SDS011;167;47.558;7.602;2022-07-10T10:21:00;0.65;;;0.65;;
357;SDS011;167;47.558;7.602;2022-07-10T10:23:26;0.73;;;0.73;;
357;SDS011;167;47.558;7.602;2022-07-10T10:25:54;1.27;;;0.82;;
357;SDS011;167;47.558;7.602;2022-07-10T10:28:20;0.65;;;0.65;;
357;SDS011;167;47.558;7.602;2022-07-10T10:30:48;0.50;;;0.50;;
357;SDS011;167;47.558;7.602;2022-07-10T10:35:56;0.70;;;0.70;;
357;SDS011;167;47.558;7.602;2022-07-10T10:38:22;0.88;;;0.88;;
357;SDS011;167;47.558;7.602;2022-07-10T10:40:48;0.75;;;0.75;;
357;SDS011;167;47.558;7.602;2022-07-10T10:43:18;1.33;;;1.00;;
357;SDS011;167;47.558;7.602;2022-07-10T10:45:44;1.13;;;0.60;;
357;SDS011;167;47.558;7.602;2022-07-10T10:48:15;0.50;;;0.50;;
357;SDS011;167;47.558;7.602;2022-07-10T10:50:51;0.88;;;0.77;;
357;SDS011;167;47.558;7.602;2022-07-10T11:01:05;1.33;;;0.50;;
357;SDS011;167;47.558;7.602;2022-07-10T11:03:31;0.80;;;0.80;;
357;SDS011;167;47.558;7.602;2022-07-10T11:05:57;0.60;;;0.60;;
357;SDS011;167;47.558;7.602;2022-07-10T11:08:37;2.15;;;0.65;;
357;SDS011;167;47.558;7.602;2022-07-10T11:11:37;0.80;;;0.80;;
357;SDS011;167;47.558;7.602;2022-07-10T11:13:59;1.17;;;0.80;;
357;SDS011;167;47.558;7.602;2022-07-10T11:16:25;1.00;;;0.95;;
357;SDS011;167;47.558;7.602;2022-07-10T11:18:52;0.70;;;0.70;;
357;SDS011;167;47.558;7.602;2022-07-10T11:21:21;0.82;;;0.82;;
357;SDS011;167;47.558;7.602;2022-07-10T11:24:10;0.68;;;0.68;;
357;SDS011;167;47.558;7.602;2022-07-10T11:29:08;0.70;;;0.70;;
357;SDS011;167;47.558;7.602;2022-07-10T11:31:34;0.63;;;0.63;;
357;SDS011;167;47.558;7.602;2022-07-10T11:34:09;0.60;;;0.60;;
357;SDS011;167;47.558;7.602;2022-07-10T11:36:38;0.88;;;0.75;;
357;SDS011;167;47.558;7.602;2022-07-10T11:39:07;0.55;;;0.55;;
357;SDS011;167;47.558;7.602;2022-07-10T11:41:33;0.60;;;0.60;;
357;SDS011;167;47.558;7.602;2022-07-10T11:44:03;0.70;;;0.70;;
357;SDS011;167;47.558;7.602;2022-07-10T11:46:33;1.20;;;0.63;;
357;SDS011;167;47.558;7.602;2022-07-10T11:49:02;0.60;;;0.60;;
357;SDS011;167;47.558;7.602;2022-07-10T11:51:30;2.17;;;0.73;;
357;SDS011;167;47.558;7.602;2022-07-10T11:56:23;0.70;;;0.70;;
357;SDS011;167;47.558;7.602;2022-07-10T12:01:35;1.83;;;0.87;;
357;SDS011;167;47.558;7.602;2022-07-10T12:04:04;0.50;;;0.50;;
357;SDS011;167;47.558;7.602;2022-07-10T12:06:31;0.90;;;0.80;;
357;SDS011;167;47.558;7.602;2022-07-10T12:09:01;1.10;;;1.10;;
357;SDS011;167;47.558;7.602;2022-07-10T12:11:27;1.10;;;1.00;;
357;SDS011;167;47.558;7.602;2022-07-10T12:13:53;0.80;;;0.80;;
357;SDS011;167;47.558;7.602;2022-07-10T12:16:34;1.60;;;0.80;;
357;SDS011;167;47.558;7.602;2022-07-10T12:19:01;0.70;;;0.70;;
357;SDS011;167;47.558;7.602;2022-07-10T12:21:27;0.80;;;0.80;;
357;SDS011;167;47.558;7.602;2022-07-10T12:23:54;1.17;;;0.90;;
357;SDS011;167;47.558;7.602;2022-07-10T12:26:21;0.97;;;0.97;;
357;SDS011;167;47.558;7.602;2022-07-10T12:28:54;1.83;;;0.77;;
357;SDS011;167;47.558;7.602;2022-07-10T12:31:21;1.13;;;0.70;;
357;SDS011;167;47.558;7.602;2022-07-10T12:33:54;0.70;;;0.70;;
357;SDS011;167;47.558;7.602;2022-07-10T12:36:23;1.07;;;0.70;;
357;SDS011;167;47.558;7.602;2022-07-10T12:38:58;0.80;;;0.80;;
357;SDS011;167;47.558;7.602;2022-07-10T12:41:24;0.80;;;0.80;;
357;SDS011;167;47.558;7.602;2022-07-10T12:43:51;1.13;;;0.90;;
357;SDS011;167;47.558;7.602;2022-07-10T12:46:18;0.90;;;0.90;;
357;SDS011;167;47.558;7.602;2022-07-10T12:51:30;0.70;;;0.70;;
357;SDS011;167;47.558;7.602;2022-07-10T12:53:56;0.93;;;0.93;;
357;SDS011;167;47.558;7.602;2022-07-10T12:56:35;0.90;;;0.90;;
357;SDS011;167;47.558;7.602;2022-07-10T12:59:22;0.70;;;0.60;;
357;SDS011;167;47.558;7.602;2022-07-10T13:01:47;0.70;;;0.70;;
357;SDS011;167;47.558;7.602;2022-07-10T13:04:13;0.70;;;0.70;;
357;SDS011;167;47.558;7.602;2022-07-10T13:06:41;0.67;;;0.67;;
357;SDS011;167;47.558;7.602;2022-07-10T13:11:46;0.60;;;0.60;;
357;SDS011;167;47.558;7.602;2022-07-10T13:14:12;0.60;;;0.60;;
357;SDS011;167;47.558;7.602;2022-07-10T13:16:38;0.67;;;0.67;;
357;SDS011;167;47.558;7.602;2022-07-10T13:19:05;0.60;;;0.60;;
357;SDS011;167;47.558;7.602;2022-07-10T13:21:30;0.60;;;0.60;;
357;SDS011;167;47.558;7.602;2022-07-10T13:23:56;5.30;;;0.60;;
357;SDS011;167;47.558;7.602;2022-07-10T13:26:22;0.70;;;0.70;;
357;SDS011;167;47.558;7.602;2022-07-10T13:28:48;1.67;;;1.00;;
357;SDS011;167;47.558;7.602;2022-07-10T13:31:14;0.77;;;0.77;;
357;SDS011;167;47.558;7.602;2022-07-10T13:33:41;0.70;;;0.70;;
357;SDS011;167;47.558;7.602;2022-07-10T13:36:07;1.20;;;1.10;;
357;SDS011;167;47.558;7.602;2022-07-10T13:38:34;1.67;;;0.90;;
357;SDS011;167;47.558;7.602;2022-07-10T13:41:00;0.70;;;0.70;;
357;SDS011;167;47.558;7.602;2022-07-10T13:43:26;0.67;;;0.67;;
357;SDS011;167;47.558;7.602;2022-07-10T13:45:56;0.60;;;0.60;;
357;SDS011;167;47.558;7.602;2022-07-10T13:48:22;0.67;;;0.67;;
357;SDS011;167;47.558;7.602;2022-07-10T13:50:48;1.17;;;0.97;;
357;SDS011;167;47.558;7.602;2022-07-10T13:53:14;1.00;;;1.00;;
357;SDS011;167;47.558;7.602;2022-07-10T13:55:41;1.60;;;1.10;;
357;SDS011;167;47.558;7.602;2022-07-10T13:58:08;0.80;;;0.80;;
357;SDS011;167;47.558;7.602;2022-07-10T14:00:34;1.00;;;0.93;;
357;SDS011;167;47.558;7.602;2022-07-10T14:03:01;1.20;;;1.10;;
357;SDS011;167;47.558;7.602;2022-07-10T14:05:27;1.17;;;1.17;;
357;SDS011;167;47.558;7.602;2022-07-10T14:07:53;3.93;;;1.00;;
357;SDS011;167;47.558;7.602;2022-07-10T14:10:19;2.70;;;1.00;;
357;SDS011;167;47.558;7.602;2022-07-10T14:12:45;0.87;;;0.87;;
357;SDS011;167;47.558;7.602;2022-07-10T14:15:12;0.90;;;0.90;;
357;SDS011;167;47.558;7.602;2022-07-10T14:17:38;1.00;;;1.00;;
357;SDS011;167;47.558;7.602;2022-07-10T14:20:04;0.83;;;0.83;;
357;SDS011;167;47.558;7.602;2022-07-10T14:22:30;0.97;;;0.83;;
357;SDS011;167;47.558;7.602;2022-07-10T14:24:56;1.03;;;1.03;;
357;SDS011;167;47.558;7.602;2022-07-10T14:27:23;1.00;;;1.00;;
357;SDS011;167;47.558;7.602;2022-07-10T14:29:49;1.10;;;1.10;;
357;SDS011;167;47.558;7.602;2022-07-10T14:32:16;1.30;;;1.20;;
357;SDS011;167;47.558;7.602;2022-07-10T14:34:42;0.70;;;0.70;;
357;SDS011;167;47.558;7.602;2022-07-10T14:37:08;0.87;;;0.80;;
357;SDS011;167;47.558;7.602;2022-07-10T14:39:34;2.63;;;1.67;;
357;SDS011;167;47.558;7.602;2022-07-10T14:42:01;1.10;;;1.10;;
357;SDS011;167;47.558;7.602;2022-07-10T14:44:27;1.10;;;1.10;;
357;SDS011;167;47.558;7.602;2022-07-10T14:46:53;1.13;;;0.80;;
357;SDS011;167;47.558;7.602;2022-07-10T14:49:19;0.90;;;0.80;;
357;SDS011;167;47.558;7.602;2022-07-10T14:51:45;1.10;;;1.10;;
357;SDS011;167;47.558;7.602;2022-07-10T14:54:11;2.40;;;1.20;;
357;SDS011;167;47.558;7.602;2022-07-10T14:56:37;1.20;;;1.10;;
357;SDS011;167;47.558;7.602;2022-07-10T14:59:03;1.50;;;1.40;;
357;SDS011;167;47.558;7.602;2022-07-10T15:01:29;1.23;;;1.13;;
357;SDS011;167;47.558;7.602;2022-07-10T15:03:55;1.27;;;0.77;;
357;SDS011;167;47.558;7.602;2022-07-10T15:06:23;1.10;;;1.00;;
357;SDS011;167;47.558;7.602;2022-07-10T15:08:49;1.13;;;1.10;;
357;SDS011;167;47.558;7.602;2022-07-10T15:11:16;1.00;;;1.00;;
357;SDS011;167;47.558;7.602;2022-07-10T15:13:42;1.10;;;1.00;;
357;SDS011;167;47.558;7.602;2022-07-10T15:16:08;1.00;;;1.00;;
357;SDS011;167;47.558;7.602;2022-07-10T15:18:34;1.63;;;1.47;;
357;SDS011;167;47.558;7.602;2022-07-10T15:21:00;0.97;;;0.97;;
357;SDS011;167;47.558;7.602;2022-07-10T15:23:26;1.17;;;1.17;;
357;SDS011;167;47.558;7.602;2022-07-10T15:25:53;1.20;;;1.10;;
357;SDS011;167;47.558;7.602;2022-07-10T15:28:18;1.03;;;1.03;;
357;SDS011;167;47.558;7.602;2022-07-10T15:30:44;1.00;;;1.00;;
357;SDS011;167;47.558;7.602;2022-07-10T15:33:10;1.10;;;1.10;;
357;SDS011;167;47.558;7.602;2022-07-10T15:35:37;1.20;;;1.10;;
357;SDS011;167;47.558;7.602;2022-07-10T15:38:03;1.80;;;0.97;;
357;SDS011;167;47.558;7.602;2022-07-10T15:40:29;1.17;;;1.07;;
357;SDS011;167;47.558;7.602;2022-07-10T15:42:58;1.00;;;1.00;;
357;SDS011;167;47.558;7.602;2022-07-10T15:45:24;1.60;;;1.03;;
357;SDS011;167;47.558;7.602;2022-07-10T15:47:50;0.97;;;0.97;;
357;SDS011;167;47.558;7.602;2022-07-10T15:50:16;1.10;;;1.10;;
357;SDS011;167;47.558;7.602;2022-07-10T15:52:42;1.53;;;1.30;;
357;SDS011;167;47.558;7.602;2022-07-10T15:55:10;1.43;;;1.33;;
357;SDS011;167;47.558;7.602;2022-07-10T15:57:36;1.40;;;1.23;;
357;SDS011;167;47.558;7.602;2022-07-10T16:00:03;1.17;;;1.07;;
357;SDS011;167;47.558;7.602;2022-07-10T16:02:29;1.00;;;1.00;;
357;SDS011;167;47.558;7.602;2022-07-10T16:04:55;2.30;;;1.20;;
357;SDS011;167;47.558;7.602;2022-07-10T16:07:21;1.17;;;1.03;;
357;SDS011;167;47.558;7.602;2022-07-10T16:09:47;1.23;;;0.80;;
357;SDS011;167;47.558;7.602;2022-07-10T16:12:14;2.20;;;2.10;;